sensor_id;sensor_type;location;lat;lon;timestamp;pressure;altitude;pressure_sealevel;temperature;humidity
9281;BME280;4679;47.966;7.958;2024-03-22T06:43:01;97609.97;;;9.26;77.80
9281;BME280;4679;47.966;7.958;2024-03-22T06:45:03;97607.56;;;9.24;78.08
9281;BME280;4679;47.966;7.958;2024-03-22T06:47:04;97603.88;;;9.25;78.17
9281;BME280;4679;47.966;7.958;2024-03-22T06:49:06;97603.00;;;9.31;78.31
9281;BME280;4679;47.966;7.958;2024-03-22T06:51:06;97600.47;;;9.36;77.98
9281;BME280;4679;47.966;7.958;2024-03-22T06:53:08;97602.22;;;9.42;77.86
9281;BME280;4679;47.966;7.958;2024-03-22T06:55:10;97606.72;;;9.42;78.27
9281;BME280;4679;47.966;7.958;2024-03-22T06:57:11;97603.63;;;9.45;77.72
9281;BME280;4679;47.966;7.958;2024-03-22T06:59:13;97608.00;;;9.51;77.36
9281;BME280;4679;47.966;7.958;2024-03-22T07:01:15;97613.59;;;9.61;78.25
9281;BME280;4679;47.966;7.958;2024-03-22T07:03:16;97618.19;;;9.66;77.32
9281;BME280;4679;47.966;7.958;2024-03-22T07:05:18;97612.25;;;9.70;77.46
9281;BME280;4679;47.966;7.958;2024-03-22T07:07:18;97614.00;;;9.76;77.87
9281;BME280;4679;47.966;7.958;2024-03-22T07:09:20;97611.59;;;9.86;77.73
9281;BME280;4679;47.966;7.958;2024-03-22T07:11:21;97611.25;;;9.95;77.10
9281;BME280;4679;47.966;7.958;2024-03-22T07:13:22;97608.88;;;10.05;76.76
9281;BME280;4679;47.966;7.958;2024-03-22T07:15:24;97605.66;;;10.14;76.41
9281;BME280;4679;47.966;7.958;2024-03-22T07:17:26;97606.06;;;10.30;77.26
9281;BME280;4679;47.966;7.958;2024-03-22T07:19:27;97602.13;;;10.44;75.95
9281;BME280;4679;47.966;7.958;2024-03-22T07:21:28;97599.03;;;10.58;76.90
9281;BME280;4679;47.966;7.958;2024-03-22T07:23:29;97592.34;;;10.68;76.51
9281;BME280;4679;47.966;7.958;2024-03-22T07:25:31;97594.63;;;10.76;75.97
9281;BME280;4679;47.966;7.958;2024-03-22T07:27:31;97599.44;;;10.90;75.67
9281;BME280;4679;47.966;7.958;2024-03-22T07:29:33;97597.81;;;11.01;76.08
9281;BME280;4679;47.966;7.958;2024-03-22T07:31:35;97591.44;;;11.14;75.34
9281;BME280;4679;47.966;7.958;2024-03-22T07:33:37;97598.09;;;11.28;75.01
9281;BME280;4679;47.966;7.958;2024-03-22T07:35:39;97592.19;;;11.38;74.90
9281;BME280;4679;47.966;7.958;2024-03-22T07:37:41;97594.78;;;11.49;74.81
9281;BME280;4679;47.966;7.958;2024-03-22T11:30:52;97372.44;;;19.12;50.54
9281;BME280;4679;47.966;7.958;2024-03-22T11:32:54;97361.28;;;19.05;50.40
9281;BME280;4679;47.966;7.958;2024-03-22T11:34:55;97357.53;;;19.20;49.97
9281;BME280;4679;47.966;7.958;2024-03-22T11:36:56;97359.19;;;19.35;49.51
9281;BME280;4679;47.966;7.958;2024-03-22T11:38:57;97354.84;;;19.20;49.57
9281;BME280;4679;47.966;7.958;2024-03-22T11:40:59;97352.53;;;19.13;49.53
9281;BME280;4679;47.966;7.958;2024-03-22T11:43:01;97345.53;;;19.12;49.22
9281;BME280;4679;47.966;7.958;2024-03-22T11:45:05;97344.59;;;19.22;48.84
9281;BME280;4679;47.966;7.958;2024-03-22T11:47:07;97340.44;;;19.29;48.55
9281;BME280;4679;47.966;7.958;2024-03-22T11:49:10;97330.97;;;19.32;48.44
9281;BME280;4679;47.966;7.958;2024-03-22T11:51:11;97335.78;;;19.35;48.14
9281;BME280;4679;47.966;7.958;2024-03-22T11:53:12;97329.88;;;19.52;47.53
9281;BME280;4679;47.966;7.958;2024-03-22T11:55:14;97322.34;;;19.81;47.25
9281;BME280;4679;47.966;7.958;2024-03-22T11:57:16;97329.28;;;19.55;46.89
9281;BME280;4679;47.966;7.958;2024-03-22T11:59:19;97323.69;;;19.51;47.00
9281;BME280;4679;47.966;7.958;2024-03-22T12:01:21;97309.97;;;19.66;46.70
9281;BME280;4679;47.966;7.958;2024-03-22T12:03:24;97314.63;;;19.75;46.39
9281;BME280;4679;47.966;7.958;2024-03-22T12:05:25;97301.91;;;20.08;46.08
9281;BME280;4679;47.966;7.958;2024-03-22T12:07:26;97306.59;;;20.29;45.53
9281;BME280;4679;47.966;7.958;2024-03-22T12:09:28;97302.78;;;20.30;45.15
9281;BME280;4679;47.966;7.958;2024-03-22T12:11:29;97300.09;;;20.30;44.49
9281;BME280;4679;47.966;7.958;2024-03-22T12:13:31;97303.56;;;20.17;44.35
9281;BME280;4679;47.966;7.958;2024-03-22T12:15:31;97305.78;;;20.15;44.02
9281;BME280;4679;47.966;7.958;2024-03-22T12:17:33;97295.19;;;20.19;43.81
9281;BME280;4679;47.966;7.958;2024-03-22T12:19:37;97295.13;;;20.10;43.09
9281;BME280;4679;47.966;7.958;2024-03-22T12:21:39;97289.81;;;20.19;42.90
9281;BME280;4679;47.966;7.958;2024-03-22T12:23:39;97289.31;;;20.17;42.51
9281;BME280;4679;47.966;7.958;2024-03-22T12:25:41;97284.72;;;20.31;42.22
9281;BME280;4679;47.966;7.958;2024-03-22T12:27:41;97282.13;;;20.40;41.94
9281;BME280;4679;47.966;7.958;2024-03-22T12:29:44;97275.13;;;20.39;41.40
9281;BME280;4679;47.966;7.958;2024-03-22T12:31:45;97268.44;;;20.36;40.65
9281;BME280;4679;47.966;7.958;2024-03-22T12:33:46;97271.81;;;20.55;40.29
9281;BME280;4679;47.966;7.958;2024-03-22T12:35:48;97265.78;;;20.72;39.71
9281;BME280;4679;47.966;7.958;2024-03-22T12:37:49;97264.53;;;20.78;39.75
9281;BME280;4679;47.966;7.958;2024-03-22T12:39:50;97260.50;;;20.89;39.68
9281;BME280;4679;47.966;7.958;2024-03-22T12:41:52;97254.94;;;21.08;39.39
9281;BME280;4679;47.966;7.958;2024-03-22T12:43:54;97256.34;;;21.28;39.08
9281;BME280;4679;47.966;7.958;2024-03-22T12:45:55;97248.66;;;21.44;38.62
9281;BME280;4679;47.966;7.958;2024-03-22T12:47:56;97241.75;;;21.29;38.80
9281;BME280;4679;47.966;7.958;2024-03-22T12:49:57;97254.75;;;21.27;38.47
9281;BME280;4679;47.966;7.958;2024-03-22T12:51:59;97238.63;;;21.44;38.44
9281;BME280;4679;47.966;7.958;2024-03-22T12:54:01;97238.13;;;21.73;38.13
9281;BME280;4679;47.966;7.958;2024-03-22T12:56:02;97231.28;;;22.06;37.70
9281;BME280;4679;47.966;7.958;2024-03-22T12:58:04;97227.78;;;21.66;37.18
9281;BME280;4679;47.966;7.958;2024-03-22T13:00:07;97216.59;;;21.51;37.47
9281;BME280;4679;47.966;7.958;2024-03-22T13:02:13;97226.94;;;21.57;37.49
9281;BME280;4679;47.966;7.958;2024-03-22T13:04:13;97218.09;;;21.65;36.74
9281;BME280;4679;47.966;7.958;2024-03-22T13:06:15;97218.13;;;21.34;37.22
9281;BME280;4679;47.966;7.958;2024-03-22T13:08:17;97206.78;;;21.24;37.26
9281;BME280;4679;47.966;7.958;2024-03-22T13:10:19;97197.94;;;21.32;36.87
9281;BME280;4679;47.966;7.958;2024-03-22T13:12:20;97196.06;;;21.41;36.40
9281;BME280;4679;47.966;7.958;2024-03-22T13:14:20;97190.81;;;21.36;36.56
9281;BME280;4679;47.966;7.958;2024-03-22T13:16:22;97191.25;;;21.29;36.56
9281;BME280;4679;47.966;7.958;2024-03-22T13:18:23;97183.03;;;21.43;36.37
9281;BME280;4679;47.966;7.958;2024-03-22T13:20:25;97188.31;;;21.17;36.40
9281;BME280;4679;47.966;7.958;2024-03-22T13:22:25;97174.75;;;21.08;36.45
9281;BME280;4679;47.966;7.958;2024-03-22T13:24:28;97173.31;;;21.02;36.25
9281;BME280;4679;47.966;7.958;2024-03-22T13:26:29;97178.56;;;20.77;36.26
9281;BME280;4679;47.966;7.958;2024-03-22T13:28:30;97174.88;;;20.73;36.30
9281;BME280;4679;47.966;7.958;2024-03-22T13:30:31;97165.31;;;20.66;36.09
9281;BME280;4679;47.966;7.958;2024-03-22T13:32:32;97157.28;;;20.75;35.82
9281;BME280;4679;47.966;7.958;2024-03-22T13:34:34;97152.69;;;21.06;35.11
9281;BME280;4679;47.966;7.958;2024-03-22T13:36:35;97157.94;;;21.34;34.91
9281;BME280;4679;47.966;7.958;2024-03-22T13:38:38;97139.41;;;21.50;34.44
9281;BME280;4679;47.966;7.958;2024-03-22T13:40:41;97140.69;;;21.52;34.52
9281;BME280;4679;47.966;7.958;2024-03-22T13:42:41;97138.66;;;21.66;34.13
9281;BME280;4679;47.966;7.958;2024-03-22T13:44:43;97131.84;;;21.77;34.26
9281;BME280;4679;47.966;7.958;2024-03-22T13:46:43;97127.53;;;21.68;34.04
9281;BME280;4679;47.966;7.958;2024-03-22T13:48:45;97121.63;;;21.57;34.04
9281;BME280;4679;47.966;7.958;2024-03-22T13:50:46;97118.59;;;21.59;34.29
9281;BME280;4679;47.966;7.958;2024-03-22T13:52:47;97111.91;;;21.56;34.00
9281;BME280;4679;47.966;7.958;2024-03-22T13:54:48;97112.59;;;21.62;33.74
9281;BME280;4679;47.966;7.958;2024-03-22T13:56:51;97110.50;;;21.59;34.04
9281;BME280;4679;47.966;7.958;2024-03-22T13:58:52;97099.84;;;21.45;33.80
9281;BME280;4679;47.966;7.958;2024-03-22T14:00:53;97097.25;;;21.23;34.17
9281;BME280;4679;47.966;7.958;2024-03-22T14:02:54;97101.13;;;21.08;34.19
9281;BME280;4679;47.966;7.958;2024-03-22T14:04:56;97102.47;;;20.88;33.98
9281;BME280;4679;47.966;7.958;2024-03-22T14:06:57;97090.69;;;20.84;34.35
9281;BME280;4679;47.966;7.958;2024-03-22T14:08:59;97084.84;;;20.91;34.55
9281;BME280;4679;47.966;7.958;2024-03-22T14:11:01;97080.78;;;21.02;34.03
9281;BME280;4679;47.966;7.958;2024-03-22T14:13:04;97078.91;;;20.80;33.94
9281;BME280;4679;47.966;7.958;2024-03-22T14:15:08;97078.09;;;20.49;34.04
9281;BME280;4679;47.966;7.958;2024-03-22T14:17:10;97067.31;;;20.26;34.26
9281;BME280;4679;47.966;7.958;2024-03-22T14:19:12;97062.97;;;20.17;34.20
9281;BME280;4679;47.966;7.958;2024-03-22T14:21:14;97065.75;;;20.25;34.45
9281;BME280;4679;47.966;7.958;2024-03-22T14:23:19;97060.59;;;20.38;34.28
9281;BME280;4679;47.966;7.958;2024-03-22T14:25:20;97062.03;;;20.66;33.85
9281;BME280;4679;47.966;7.958;2024-03-22T14:27:22;97063.94;;;20.65;33.93
9281;BME280;4679;47.966;7.958;2024-03-22T14:29:24;97052.22;;;21.10;33.66
9281;BME280;4679;47.966;7.958;2024-03-22T14:31:25;97055.47;;;21.29;33.32
9281;BME280;4679;47.966;7.958;2024-03-22T14:33:27;97046.50;;;21.51;33.02
9281;BME280;4679;47.966;7.958;2024-03-22T14:35:27;97055.72;;;21.67;33.03
9281;BME280;4679;47.966;7.958;2024-03-22T14:37:29;97048.09;;;21.69;32.81
9281;BME280;4679;47.966;7.958;2024-03-22T14:39:30;97047.00;;;21.79;32.82
9281;BME280;4679;47.966;7.958;2024-03-22T14:41:33;97046.84;;;21.84;33.25
9281;BME280;4679;47.966;7.958;2024-03-22T14:43:34;97042.22;;;21.75;33.34
9281;BME280;4679;47.966;7.958;2024-03-22T14:45:37;97049.88;;;22.08;32.88
9281;BME280;4679;47.966;7.958;2024-03-22T14:47:38;97045.22;;;21.74;33.38
9281;BME280;4679;47.966;7.958;2024-03-22T14:49:40;97040.94;;;21.64;33.73
9281;BME280;4679;47.966;7.958;2024-03-22T14:51:41;97036.31;;;21.56;33.55
9281;BME280;4679;47.966;7.958;2024-03-22T14:53:43;97030.28;;;21.94;32.99
9281;BME280;4679;47.966;7.958;2024-03-22T14:55:51;97025.88;;;22.06;33.09
9281;BME280;4679;47.966;7.958;2024-03-22T14:57:53;97022.50;;;21.66;33.50
9281;BME280;4679;47.966;7.958;2024-03-22T14:59:53;97014.22;;;21.37;33.68
9281;BME280;4679;47.966;7.958;2024-03-22T15:01:56;97018.00;;;21.27;33.81
9281;BME280;4679;47.966;7.958;2024-03-22T15:03:57;97014.50;;;21.27;33.63
9281;BME280;4679;47.966;7.958;2024-03-22T15:05:59;97010.97;;;21.18;33.92
9281;BME280;4679;47.966;7.958;2024-03-22T15:08:00;97008.69;;;20.94;33.81
9281;BME280;4679;47.966;7.958;2024-03-22T15:10:02;97002.22;;;20.64;34.19
9281;BME280;4679;47.966;7.958;2024-03-22T15:12:05;96999.19;;;20.57;34.08
9281;BME280;4679;47.966;7.958;2024-03-22T15:14:09;96994.63;;;20.66;34.19
9281;BME280;4679;47.966;7.958;2024-03-22T15:16:09;96988.00;;;20.72;34.34
9281;BME280;4679;47.966;7.958;2024-03-22T15:18:12;96981.97;;;20.75;34.49
9281;BME280;4679;47.966;7.958;2024-03-22T15:20:13;96980.22;;;20.79;33.95
9281;BME280;4679;47.966;7.958;2024-03-22T15:22:15;96981.97;;;20.75;34.05
9281;BME280;4679;47.966;7.958;2024-03-22T15:24:18;96975.75;;;20.66;34.52
9281;BME280;4679;47.966;7.958;2024-03-22T15:26:19;96975.91;;;20.61;34.79
9281;BME280;4679;47.966;7.958;2024-03-22T15:28:21;96977.16;;;20.63;35.01
9281;BME280;4679;47.966;7.958;2024-03-22T15:30:23;96974.06;;;20.48;34.95
9281;BME280;4679;47.966;7.958;2024-03-22T15:32:23;96975.66;;;20.49;35.00
9281;BME280;4679;47.966;7.958;2024-03-22T15:34:27;96969.34;;;20.53;34.90
9281;BME280;4679;47.966;7.958;2024-03-22T15:36:28;96977.94;;;21.03;34.16
9281;BME280;4679;47.966;7.958;2024-03-22T15:38:30;96974.13;;;21.04;34.70
9281;BME280;4679;47.966;7.958;2024-03-22T15:40:30;96969.34;;;20.93;34.64
9281;BME280;4679;47.966;7.958;2024-03-22T15:42:33;96967.09;;;20.86;34.88
9281;BME280;4679;47.966;7.958;2024-03-22T15:44:33;96964.72;;;20.93;34.74
9281;BME280;4679;47.966;7.958;2024-03-22T15:46:35;96954.72;;;20.85;35.23
9281;BME280;4679;47.966;7.958;2024-03-22T15:48:36;96953.59;;;20.86;34.75
9281;BME280;4679;47.966;7.958;2024-03-22T15:50:39;96955.28;;;20.65;35.24
9281;BME280;4679;47.966;7.958;2024-03-22T15:52:39;96941.22;;;20.37;35.11
9281;BME280;4679;47.966;7.958;2024-03-22T15:54:41;96949.09;;;20.33;35.20
9281;BME280;4679;47.966;7.958;2024-03-22T15:56:42;96946.19;;;20.44;35.15
9281;BME280;4679;47.966;7.958;2024-03-22T15:58:43;96942.50;;;20.40;35.32
9281;BME280;4679;47.966;7.958;2024-03-22T16:00:44;96944.19;;;20.35;35.40
9281;BME280;4679;47.966;7.958;2024-03-22T16:02:46;96944.59;;;20.51;35.15
9281;BME280;4679;47.966;7.958;2024-03-22T16:04:47;96941.88;;;20.43;35.39
9281;BME280;4679;47.966;7.958;2024-03-22T16:06:50;96941.47;;;20.58;35.42
9281;BME280;4679;47.966;7.958;2024-03-22T16:08:51;96946.09;;;20.66;35.17
9281;BME280;4679;47.966;7.958;2024-03-22T16:10:53;96940.25;;;20.73;35.06
9281;BME280;4679;47.966;7.958;2024-03-22T16:12:54;96942.47;;;20.79;35.17
9281;BME280;4679;47.966;7.958;2024-03-22T16:14:55;96935.69;;;20.90;34.81
9281;BME280;4679;47.966;7.958;2024-03-22T16:16:56;96931.09;;;20.99;34.99
9281;BME280;4679;47.966;7.958;2024-03-22T16:18:58;96936.53;;;21.08;34.36
9281;BME280;4679;47.966;7.958;2024-03-22T16:20:58;96930.66;;;21.15;34.34
9281;BME280;4679;47.966;7.958;2024-03-22T16:23:01;96924.13;;;21.16;34.20
9281;BME280;4679;47.966;7.958;2024-03-22T16:25:07;96926.22;;;21.27;34.25
9281;BME280;4679;47.966;7.958;2024-03-22T16:27:09;96930.34;;;21.25;33.93
9281;BME280;4679;47.966;7.958;2024-03-22T16:29:09;96927.16;;;21.14;34.26
9281;BME280;4679;47.966;7.958;2024-03-22T16:31:11;96925.72;;;21.08;34.62
9281;BME280;4679;47.966;7.958;2024-03-22T16:33:12;96929.81;;;20.97;34.74
9281;BME280;4679;47.966;7.958;2024-03-22T16:35:13;96919.34;;;20.87;34.69
9281;BME280;4679;47.966;7.958;2024-03-22T16:37:15;96914.25;;;20.77;34.80
9281;BME280;4679;47.966;7.958;2024-03-22T16:39:17;96916.22;;;20.54;34.95
9281;BME280;4679;47.966;7.958;2024-03-22T16:41:18;96912.53;;;20.41;35.38
9281;BME280;4679;47.966;7.958;2024-03-22T16:43:20;96911.34;;;20.33;35.13
9281;BME280;4679;47.966;7.958;2024-03-22T16:45:20;96909.38;;;20.17;35.35
9281;BME280;4679;47.966;7.958;2024-03-22T16:47:22;96904.41;;;20.01;35.52
9281;BME280;4679;47.966;7.958;2024-03-22T16:49:22;96900.09;;;19.92;35.35
9281;BME280;4679;47.966;7.958;2024-03-22T16:51:24;96898.25;;;19.79;35.59
9281;BME280;4679;47.966;7.958;2024-03-22T16:53:25;96898.03;;;19.66;35.66
9281;BME280;4679;47.966;7.958;2024-03-22T16:55:28;96901.59;;;19.53;35.65
9281;BME280;4679;47.966;7.958;2024-03-22T16:57:28;96901.63;;;19.40;35.54
9281;BME280;4679;47.966;7.958;2024-03-22T16:59:31;96894.69;;;19.25;35.69
9281;BME280;4679;47.966;7.958;2024-03-22T17:01:31;96897.59;;;19.15;35.87
9281;BME280;4679;47.966;7.958;2024-03-22T17:03:33;96895.16;;;19.05;35.92
9281;BME280;4679;47.966;7.958;2024-03-22T17:05:35;96894.75;;;18.97;35.96
9281;BME280;4679;47.966;7.958;2024-03-22T17:07:36;96887.53;;;18.84;35.96
9281;BME280;4679;47.966;7.958;2024-03-22T17:09:37;96887.06;;;18.69;36.31
9281;BME280;4679;47.966;7.958;2024-03-22T17:11:40;96891.63;;;18.54;36.41
9281;BME280;4679;47.966;7.958;2024-03-22T17:13:41;96882.28;;;18.38;36.75
9281;BME280;4679;47.966;7.958;2024-03-22T17:15:42;96883.28;;;18.15;36.77
9281;BME280;4679;47.966;7.958;2024-03-22T17:17:44;96880.84;;;17.86;37.18
9281;BME280;4679;47.966;7.958;2024-03-22T17:19:46;96878.34;;;17.76;37.57
9281;BME280;4679;47.966;7.958;2024-03-22T17:21:46;96881.75;;;17.63;37.77
9281;BME280;4679;47.966;7.958;2024-03-22T17:23:48;96884.97;;;17.46;37.54
9281;BME280;4679;47.966;7.958;2024-03-22T17:25:49;96888.69;;;17.31;37.96
9281;BME280;4679;47.966;7.958;2024-03-22T17:27:53;96886.25;;;17.16;37.68
9281;BME280;4679;47.966;7.958;2024-03-22T17:29:54;96874.38;;;17.03;38.48
9281;BME280;4679;47.966;7.958;2024-03-22T17:31:55;96876.63;;;16.96;38.75
9281;BME280;4679;47.966;7.958;2024-03-22T17:33:56;96883.16;;;16.90;38.69
9281;BME280;4679;47.966;7.958;2024-03-22T17:35:58;96889.94;;;16.82;39.01
9281;BME280;4679;47.966;7.958;2024-03-22T17:37:59;96891.47;;;16.70;38.72
9281;BME280;4679;47.966;7.958;2024-03-22T17:40:00;96884.84;;;16.62;39.18
9281;BME280;4679;47.966;7.958;2024-03-22T17:42:01;96892.69;;;16.53;39.19
9281;BME280;4679;47.966;7.958;2024-03-22T17:44:04;96886.69;;;16.43;39.79
9281;BME280;4679;47.966;7.958;2024-03-22T17:46:05;96884.84;;;16.38;39.69
9281;BME280;4679;47.966;7.958;2024-03-22T17:48:07;96881.47;;;16.33;39.70
9281;BME280;4679;47.966;7.958;2024-03-22T17:50:08;96879.41;;;16.25;40.31
9281;BME280;4679;47.966;7.958;2024-03-22T17:52:10;96880.56;;;16.18;40.00
9281;BME280;4679;47.966;7.958;2024-03-22T17:54:11;96879.84;;;16.08;40.30
9281;BME280;4679;47.966;7.958;2024-03-22T17:56:13;96883.72;;;15.97;41.04
9281;BME280;4679;47.966;7.958;2024-03-22T17:58:13;96883.88;;;15.81;40.90
9281;BME280;4679;47.966;7.958;2024-03-22T18:00:17;96879.97;;;15.69;41.38
9281;BME280;4679;47.966;7.958;2024-03-22T18:02:18;96885.72;;;15.57;41.81
9281;BME280;4679;47.966;7.958;2024-03-22T18:04:19;96879.56;;;15.52;41.70
9281;BME280;4679;47.966;7.958;2024-03-22T18:06:20;96880.94;;;15.44;41.87
9281;BME280;4679;47.966;7.958;2024-03-22T18:08:22;96881.81;;;15.39;42.07
9281;BME280;4679;47.966;7.958;2024-03-22T18:10:22;96887.19;;;15.34;42.08
9281;BME280;4679;47.966;7.958;2024-03-22T18:12:24;96881.88;;;15.29;42.38
9281;BME280;4679;47.966;7.958;2024-03-22T18:14:24;96890.97;;;15.28;42.33
9281;BME280;4679;47.966;7.958;2024-03-22T18:16:27;96885.94;;;15.27;42.56
9281;BME280;4679;47.966;7.958;2024-03-22T18:18:28;96887.81;;;15.21;42.79
9281;BME280;4679;47.966;7.958;2024-03-22T18:20:30;96881.72;;;15.16;42.67
9281;BME280;4679;47.966;7.958;2024-03-22T18:22:30;96892.47;;;15.10;42.84
9281;BME280;4679;47.966;7.958;2024-03-22T18:24:32;96892.47;;;15.05;42.95
9281;BME280;4679;47.966;7.958;2024-03-22T18:26:32;96894.91;;;15.02;43.10
9281;BME280;4679;47.966;7.958;2024-03-22T18:28:34;96886.94;;;14.97;43.72
9281;BME280;4679;47.966;7.958;2024-03-22T18:30:35;96892.81;;;14.94;43.72
9281;BME280;4679;47.966;7.958;2024-03-22T18:32:36;96890.44;;;14.92;44.17
9281;BME280;4679;47.966;7.958;2024-03-22T18:34:39;96889.94;;;14.85;44.40
9281;BME280;4679;47.966;7.958;2024-03-22T18:36:40;96893.44;;;14.81;44.56
9281;BME280;4679;47.966;7.958;2024-03-22T18:38:42;96896.13;;;14.75;44.25
9281;BME280;4679;47.966;7.958;2024-03-22T18:40:43;96888.94;;;14.71;44.52
9281;BME280;4679;47.966;7.958;2024-03-22T18:42:45;96899.38;;;14.67;44.91
9281;BME280;4679;47.966;7.958;2024-03-22T18:44:45;96897.78;;;14.66;45.03
9281;BME280;4679;47.966;7.958;2024-03-22T18:46:47;96899.94;;;14.64;44.92
9281;BME280;4679;47.966;7.958;2024-03-22T18:48:49;96903.47;;;14.39;45.47
9281;BME280;4679;47.966;7.958;2024-03-22T18:50:51;96899.25;;;14.28;45.65
9281;BME280;4679;47.966;7.958;2024-03-22T18:52:52;96900.09;;;14.14;45.94
9281;BME280;4679;47.966;7.958;2024-03-22T18:54:57;96895.03;;;14.07;46.28
9281;BME280;4679;47.966;7.958;2024-03-22T18:56:59;96905.19;;;13.95;46.36
9281;BME280;4679;47.966;7.958;2024-03-22T18:59:00;96901.75;;;13.79;47.06
9281;BME280;4679;47.966;7.958;2024-03-22T19:01:02;96896.94;;;13.76;46.88
9281;BME280;4679;47.966;7.958;2024-03-22T19:03:03;96895.91;;;13.67;47.50
9281;BME280;4679;47.966;7.958;2024-03-22T19:05:06;96898.31;;;13.58;47.90
9281;BME280;4679;47.966;7.958;2024-03-22T19:07:07;96897.25;;;13.49;48.14
9281;BME280;4679;47.966;7.958;2024-03-22T19:09:08;96894.84;;;13.32;48.55
9281;BME280;4679;47.966;7.958;2024-03-22T19:11:09;96896.69;;;13.17;48.82
9281;BME280;4679;47.966;7.958;2024-03-22T19:13:11;96894.81;;;13.12;48.95
9281;BME280;4679;47.966;7.958;2024-03-22T19:15:12;96898.00;;;13.14;49.38
9281;BME280;4679;47.966;7.958;2024-03-22T19:17:13;96892.16;;;13.12;49.07
9281;BME280;4679;47.966;7.958;2024-03-22T19:19:15;96894.00;;;12.96;49.94
9281;BME280;4679;47.966;7.958;2024-03-22T19:21:20;96892.13;;;12.92;50.12
9281;BME280;4679;47.966;7.958;2024-03-22T19:23:23;96895.56;;;12.82;50.19
9281;BME280;4679;47.966;7.958;2024-03-22T19:25:24;96888.91;;;12.85;50.52
9281;BME280;4679;47.966;7.958;2024-03-22T19:27:26;96884.66;;;12.89;50.78
9281;BME280;4679;47.966;7.958;2024-03-22T19:29:27;96892.09;;;12.87;50.87
9281;BME280;4679;47.966;7.958;2024-03-22T19:31:29;96881.69;;;12.75;51.00
9281;BME280;4679;47.966;7.958;2024-03-22T19:33:30;96882.47;;;12.71;51.10
9281;BME280;4679;47.966;7.958;2024-03-22T19:35:32;96879.00;;;12.60;51.45
9281;BME280;4679;47.966;7.958;2024-03-22T19:37:34;96879.53;;;12.52;51.44
9281;BME280;4679;47.966;7.958;2024-03-22T19:39:36;96883.97;;;12.41;52.12
9281;BME280;4679;47.966;7.958;2024-03-22T19:41:37;96881.34;;;12.46;51.88
9281;BME280;4679;47.966;7.958;2024-03-22T19:43:39;96878.38;;;12.38;52.30
9281;BME280;4679;47.966;7.958;2024-03-22T19:45:40;96885.31;;;12.33;52.73
9281;BME280;4679;47.966;7.958;2024-03-22T19:47:44;96884.97;;;12.20;52.64
9281;BME280;4679;47.966;7.958;2024-03-22T19:49:45;96879.06;;;12.13;53.46
9281;BME280;4679;47.966;7.958;2024-03-22T19:51:47;96875.38;;;12.14;53.37
9281;BME280;4679;47.966;7.958;2024-03-22T19:53:49;96872.19;;;12.17;53.07
9281;BME280;4679;47.966;7.958;2024-03-22T19:55:50;96882.81;;;12.17;53.92
9281;BME280;4679;47.966;7.958;2024-03-22T19:57:53;96876.94;;;12.10;53.40
9281;BME280;4679;47.966;7.958;2024-03-22T19:59:54;96882.50;;;12.08;53.77
9281;BME280;4679;47.966;7.958;2024-03-22T20:01:55;96873.19;;;12.01;54.28
9281;BME280;4679;47.966;7.958;2024-03-22T20:03:57;96880.81;;;11.92;54.85
9281;BME280;4679;47.966;7.958;2024-03-22T20:05:59;96871.00;;;11.92;54.18
9281;BME280;4679;47.966;7.958;2024-03-22T20:08:01;96873.41;;;11.94;54.14
9281;BME280;4679;47.966;7.958;2024-03-22T20:10:05;96868.88;;;11.89;55.08
9281;BME280;4679;47.966;7.958;2024-03-22T20:12:07;96870.19;;;11.87;54.53
9281;BME280;4679;47.966;7.958;2024-03-22T20:14:08;96866.72;;;11.86;55.37
9281;BME280;4679;47.966;7.958;2024-03-22T20:16:11;96872.53;;;11.83;55.47
9281;BME280;4679;47.966;7.958;2024-03-22T20:18:12;96872.84;;;11.87;55.18
9281;BME280;4679;47.966;7.958;2024-03-22T20:20:14;96864.06;;;11.86;55.22
9281;BME280;4679;47.966;7.958;2024-03-22T20:22:14;96870.69;;;11.84;56.05
9281;BME280;4679;47.966;7.958;2024-03-22T20:24:16;96862.69;;;11.79;55.94
9281;BME280;4679;47.966;7.958;2024-03-22T20:26:18;96864.03;;;11.81;55.86
9281;BME280;4679;47.966;7.958;2024-03-22T20:28:20;96855.25;;;11.81;56.08
9281;BME280;4679;47.966;7.958;2024-03-22T20:30:20;96860.81;;;11.79;55.82
9281;BME280;4679;47.966;7.958;2024-03-22T20:32:22;96858.72;;;11.81;56.30
9281;BME280;4679;47.966;7.958;2024-03-22T20:34:23;96855.16;;;11.71;56.03
9281;BME280;4679;47.966;7.958;2024-03-22T20:36:25;96852.66;;;11.54;56.31
9281;BME280;4679;47.966;7.958;2024-03-22T20:38:25;96848.66;;;11.51;56.86
